createdAt,value
2022-12-06T00:00:20.058Z,101813.53
2022-12-06T00:02:52.867Z,101809.83
2022-12-06T00:05:26.341Z,101805.89
2022-12-06T00:07:59.237Z,101807.08
2022-12-06T00:10:32.313Z,101808.22
2022-12-06T00:13:06.787Z,101807.53
2022-12-06T00:15:39.870Z,101812.03
2022-12-06T00:18:12.594Z,101808.22
2022-12-06T00:20:45.418Z,101820.23
2022-12-06T00:23:18.368Z,101816.20
2022-12-06T00:25:51.183Z,101814.92
2022-12-06T00:28:24.001Z,101806.48
2022-12-06T00:31:01.915Z,101799.55
2022-12-06T00:33:36.535Z,101795.05
2022-12-06T00:36:16.624Z,101788.83
2022-12-06T00:38:50.543Z,101783.52
2022-12-06T00:41:26.316Z,101782.58
2022-12-06T00:43:59.152Z,101787.09
2022-12-06T00:46:34.110Z,101780.16
2022-12-06T00:49:10.395Z,101776.13
2022-12-06T00:51:43.501Z,101773.94
2022-12-06T00:54:17.012Z,101780.61
2022-12-06T00:56:51.200Z,101777.52
2022-12-06T00:59:24.640Z,101774.16
2022-12-06T01:01:57.584Z,101777.96
2022-12-06T01:04:30.777Z,101770.70
2022-12-06T01:07:03.632Z,101762.17
2022-12-06T01:09:36.612Z,101768.61
2022-12-06T01:12:09.499Z,101763.89
2022-12-06T01:14:42.570Z,101766.78
2022-12-06T01:17:15.538Z,101758.69
2022-12-06T01:19:48.558Z,101759.41
2022-12-06T01:22:21.224Z,101755.13
2022-12-06T01:24:54.207Z,101752.91
2022-12-06T01:27:27.575Z,101753.86
2022-12-06T01:30:00.636Z,101751.55
2022-12-06T01:32:33.785Z,101748.66
2022-12-06T01:35:07.987Z,101750.52
2022-12-06T01:37:40.893Z,101757.78
2022-12-06T01:40:14.996Z,101746.94
2022-12-06T01:42:47.749Z,101749.71
2022-12-06T01:45:21.220Z,101754.20
2022-12-06T01:47:54.041Z,101749.80
2022-12-06T01:50:33.042Z,101743.69
2022-12-06T01:53:09.309Z,101744.86
2022-12-06T01:55:42.665Z,101745.06
2022-12-06T01:58:20.266Z,101752.13
2022-12-06T02:00:53.026Z,101744.38
2022-12-06T02:03:29.010Z,101746.56
2022-12-06T02:06:04.117Z,101748.06
2022-12-06T02:08:38.024Z,101738.71
2022-12-06T02:11:11.734Z,101740.70
2022-12-06T02:13:44.634Z,101739.43
2022-12-06T02:16:43.493Z,101743.47
2022-12-06T02:19:46.504Z,101740.93
2022-12-06T02:22:51.682Z,101736.53
2022-12-06T02:25:44.450Z,101736.66
2022-12-06T02:28:37.120Z,101736.66
2022-12-06T02:31:28.805Z,101734.25
2022-12-06T02:34:21.609Z,101727.54
2022-12-06T02:36:59.408Z,101729.84
2022-12-06T02:40:04.087Z,101728.58
2022-12-06T02:42:55.205Z,101732.39
2022-12-06T02:45:35.179Z,101732.16
2022-12-06T02:48:08.850Z,101731.02
2022-12-06T02:50:41.970Z,101729.16
2022-12-06T02:53:19.025Z,101721.98
2022-12-06T02:55:52.816Z,101722.11
2022-12-06T02:58:25.667Z,101721.52
2022-12-06T03:01:05.375Z,101721.87
2022-12-06T03:03:54.544Z,101721.52
2022-12-06T03:06:48.754Z,101721.52
2022-12-06T03:09:38.926Z,101724.55
2022-12-06T03:12:41.390Z,101726.14
2022-12-06T03:15:55.261Z,101723.59
2022-12-06T03:18:45.027Z,101721.77
2022-12-06T03:21:28.207Z,101712.78
2022-12-06T03:24:01.311Z,101712.78
2022-12-06T03:26:36.450Z,101711.52
2022-12-06T03:29:10.799Z,101715.09
2022-12-06T03:31:44.480Z,101715.89
2022-12-06T03:34:21.999Z,101716.58
2022-12-06T03:36:55.701Z,101709.09
2022-12-06T03:39:51.425Z,101715.52
2022-12-06T03:42:24.364Z,101716.56
2022-12-06T03:44:57.539Z,101711.16
2022-12-06T03:47:43.528Z,101702.83
2022-12-06T03:50:35.823Z,101706.53
2022-12-06T03:53:09.126Z,101706.53
2022-12-06T03:55:42.595Z,101695.23
2022-12-06T03:58:15.293Z,101694.44
2022-12-06T04:00:48.742Z,101694.98
2022-12-06T04:03:22.102Z,101693.48
2022-12-06T04:05:55.651Z,101694.31
2022-12-06T04:08:28.400Z,101692.36
2022-12-06T04:11:02.500Z,101693.86
2022-12-06T04:13:36.695Z,101697.67
2022-12-06T04:16:29.360Z,101682.20
2022-12-06T04:19:03.395Z,101682.77
2022-12-06T04:21:56.190Z,101682.77
2022-12-06T04:24:30.435Z,101678.29
2022-12-06T04:27:22.460Z,101678.29
2022-12-06T04:30:14.042Z,101672.85
2022-12-06T04:33:06.886Z,101666.16
2022-12-06T04:35:58.786Z,101670.67
2022-12-06T04:38:43.225Z,101669.95
2022-12-06T04:41:18.877Z,101670.55
2022-12-06T04:43:52.914Z,101667.33
2022-12-06T04:46:25.719Z,101671.01
2022-12-06T04:48:59.571Z,101666.16
2022-12-06T04:51:35.221Z,101661.09
2022-12-06T04:54:09.681Z,101667.66
2022-12-06T04:56:43.369Z,101659.81
2022-12-06T04:59:18.971Z,101663.27
2022-12-06T05:01:53.063Z,101656.47
2022-12-06T05:04:27.348Z,101666.50
2022-12-06T05:07:01.232Z,101666.14
2022-12-06T05:09:35.237Z,101664.41
2022-12-06T05:12:08.359Z,101661.07
2022-12-06T05:14:42.112Z,101663.61
2022-12-06T05:17:15.846Z,101664.98
2022-12-06T05:19:48.770Z,101667.75
2022-12-06T05:22:22.518Z,101666.94
2022-12-06T05:24:55.484Z,101664.95
2022-12-06T05:27:34.379Z,101678.11
2022-12-06T05:30:06.661Z,101675.25
2022-12-06T05:32:41.532Z,101688.05
2022-12-06T05:35:15.428Z,101675.80
2022-12-06T05:37:48.691Z,101680.07
2022-12-06T05:40:22.295Z,101676.59
2022-12-06T05:42:56.026Z,101676.59
2022-12-06T05:45:29.187Z,101684.66
2022-12-06T05:48:02.706Z,101687.66
2022-12-06T05:50:36.886Z,101677.27
2022-12-06T05:53:10.526Z,101680.63
2022-12-06T05:55:44.136Z,101678.99
2022-12-06T05:58:19.320Z,101685.80
2022-12-06T06:00:53.678Z,101672.41
2022-12-06T06:03:27.376Z,101675.19
2022-12-06T06:06:02.917Z,101681.86
2022-12-06T06:08:36.955Z,101673.64
2022-12-06T06:11:11.071Z,101677.42
2022-12-06T06:13:45.108Z,101675.91
2022-12-06T06:16:18.763Z,101680.50
2022-12-06T06:18:51.902Z,101672.73
2022-12-06T06:21:25.514Z,101674.21
2022-12-06T06:23:59.974Z,101674.75
2022-12-06T06:26:33.858Z,101676.20
2022-12-06T06:29:06.720Z,101671.91
2022-12-06T06:31:40.791Z,101672.66
2022-12-06T06:34:14.595Z,101669.59
2022-12-06T06:36:48.864Z,101664.59
2022-12-06T06:39:21.696Z,101663.52
2022-12-06T06:41:55.320Z,101657.09
2022-12-06T06:44:29.035Z,101663.43
2022-12-06T06:47:02.763Z,101660.27
2022-12-06T06:49:37.010Z,101652.58
2022-12-06T06:52:10.937Z,101651.96
2022-12-06T06:54:44.835Z,101644.98
2022-12-06T06:57:18.801Z,101640.55
2022-12-06T06:59:51.719Z,101637.39
2022-12-06T07:02:25.338Z,101647.17
2022-12-06T07:04:58.429Z,101649.54
2022-12-06T07:07:32.700Z,101642.77
2022-12-06T07:10:06.750Z,101638.88
2022-12-06T07:12:40.521Z,101632.64
2022-12-06T07:15:14.507Z,101628.96
2022-12-06T07:17:51.198Z,101629.83
2022-12-06T07:20:24.836Z,101613.58
2022-12-06T07:22:59.256Z,101610.41
2022-12-06T07:25:33.719Z,101613.44
2022-12-06T07:28:08.001Z,101604.80
2022-12-06T07:30:42.395Z,101598.70
2022-12-06T07:33:15.375Z,101605.59
2022-12-06T07:38:30.357Z,101596.80
2022-12-06T07:41:28.062Z,101592.75
2022-12-06T07:44:20.663Z,101591.05
2022-12-06T07:46:55.785Z,101594.08
2022-12-06T07:49:30.137Z,101589.08
2022-12-06T07:52:04.067Z,101593.00
2022-12-06T07:54:38.079Z,101585.23
2022-12-06T07:57:11.938Z,101586.08
2022-12-06T07:59:45.713Z,101586.21
2022-12-06T08:02:23.306Z,101583.63
2022-12-06T08:04:58.920Z,101583.73
2022-12-06T08:07:33.153Z,101578.17
2022-12-06T08:10:07.385Z,101571.39
2022-12-06T08:12:40.995Z,101569.17
2022-12-06T08:15:14.921Z,101571.47
2022-12-06T08:17:48.586Z,101564.42
2022-12-06T08:20:22.220Z,101566.69
2022-12-06T08:22:56.157Z,101563.55
2022-12-06T08:25:29.012Z,101555.63
2022-12-06T08:28:02.591Z,101559.91
2022-12-06T08:30:38.871Z,101555.03
2022-12-06T08:33:12.600Z,101542.69
2022-12-06T08:35:46.508Z,101545.72
2022-12-06T08:38:21.122Z,101549.25
2022-12-06T08:40:55.577Z,101541.10
2022-12-06T08:43:29.698Z,101539.34
2022-12-06T08:46:04.195Z,101541.23
2022-12-06T08:48:42.814Z,101533.98
2022-12-06T08:51:13.639Z,101528.19
2022-12-06T08:53:47.420Z,101530.81
2022-12-06T08:56:21.331Z,101527.02
2022-12-06T08:58:55.186Z,101525.83
2022-12-06T09:01:37.349Z,101527.53
2022-12-06T09:04:09.940Z,101515.52
2022-12-06T09:06:45.513Z,101527.06
2022-12-06T09:09:20.669Z,101508.45
2022-12-06T09:11:54.800Z,101507.77
2022-12-06T09:14:28.628Z,101510.02
2022-12-06T09:17:03.124Z,101500.91
2022-12-06T09:19:37.844Z,101498.93
2022-12-06T09:22:11.636Z,101502.47
2022-12-06T09:24:45.518Z,101491.34
2022-12-06T09:27:21.026Z,101483.39
2022-12-06T09:29:54.892Z,101480.92
2022-12-06T09:32:28.678Z,101478.28
2022-12-06T09:35:03.605Z,101474.27
2022-12-06T09:37:38.743Z,101479.77
2022-12-06T09:40:30.061Z,101461.09
2022-12-06T09:43:20.749Z,101460.34
2022-12-06T09:46:08.927Z,101451.00
2022-12-06T09:48:59.503Z,101445.53
2022-12-06T09:51:59.212Z,101442.78
2022-12-06T09:54:59.907Z,101441.69
2022-12-06T09:58:06.778Z,101433.44
2022-12-06T10:00:48.145Z,101433.63
2022-12-06T10:03:40.874Z,101436.04
2022-12-06T10:06:19.938Z,101433.85
2022-12-06T10:09:31.194Z,101428.76
2022-12-06T10:12:37.099Z,101430.41
2022-12-06T10:15:47.520Z,101422.91
2022-12-06T10:18:48.782Z,101416.12
2022-12-06T10:21:33.370Z,101409.55
2022-12-06T10:24:45.170Z,101406.98
2022-12-06T10:27:23.709Z,101408.62
2022-12-06T10:30:12.675Z,101392.14
2022-12-06T10:33:06.653Z,101392.89
2022-12-06T10:36:02.681Z,101386.84
2022-12-06T10:38:54.733Z,101384.84
2022-12-06T10:41:36.635Z,101377.31
2022-12-06T10:44:30.730Z,101379.14
2022-12-06T10:47:13.309Z,101380.42
2022-12-06T10:50:17.423Z,101382.63
2022-12-06T10:53:01.829Z,101372.89
2022-12-06T10:55:52.968Z,101369.98
2022-12-06T10:58:35.697Z,101373.26
2022-12-06T11:01:13.802Z,101367.20
2022-12-06T11:03:52.387Z,101363.91
2022-12-06T11:06:54.729Z,101360.23
2022-12-06T11:09:46.284Z,101354.56
2022-12-06T11:12:31.616Z,101355.65
2022-12-06T11:15:30.835Z,101349.80
2022-12-06T11:18:16.511Z,101341.34
2022-12-06T11:21:19.283Z,101333.29
2022-12-06T11:24:01.135Z,101330.91
2022-12-06T11:26:44.725Z,101322.82
2022-12-06T11:29:19.093Z,101328.14
2022-12-06T11:31:58.888Z,101322.45
2022-12-06T11:34:54.427Z,101326.29
2022-12-06T11:37:31.590Z,101318.39
2022-12-06T11:40:28.306Z,101313.81
2022-12-06T11:43:06.451Z,101324.08
2022-12-06T11:45:43.710Z,101304.27
2022-12-06T11:48:26.308Z,101316.73
2022-12-06T11:51:00.255Z,101301.70
2022-12-06T11:53:42.867Z,101303.36
2022-12-06T11:56:30.223Z,101304.83
2022-12-06T11:59:28.967Z,101306.11
2022-12-06T12:02:04.989Z,101299.52
2022-12-06T12:04:46.146Z,101303.00
2022-12-06T12:07:23.619Z,101301.54
2022-12-06T12:10:02.954Z,101297.89
2022-12-06T12:13:07.915Z,101299.17
2022-12-06T12:15:53.421Z,101297.89
2022-12-06T12:18:36.529Z,101290.35
2022-12-06T12:21:10.584Z,101290.38
2022-12-06T12:23:48.272Z,101294.95
2022-12-06T12:26:24.458Z,101285.60
2022-12-06T12:29:20.039Z,101290.75
2022-12-06T12:32:01.315Z,101295.71
2022-12-06T12:34:40.117Z,101291.88
2022-12-06T12:37:16.181Z,101291.14
2022-12-06T12:39:55.286Z,101287.69
2022-12-06T12:42:35.123Z,101283.47
2022-12-06T12:45:13.766Z,101282.73
2022-12-06T12:48:03.112Z,101283.09
2022-12-06T12:50:37.843Z,101284.77
2022-12-06T12:53:16.691Z,101284.41
2022-12-06T12:55:50.376Z,101290.08
2022-12-06T12:58:23.794Z,101290.81
2022-12-06T13:00:59.054Z,101285.31
2022-12-06T13:06:10.929Z,101289.73
2022-12-06T13:08:45.019Z,101291.39
2022-12-06T13:11:19.539Z,101291.22
2022-12-06T13:13:52.900Z,101290.66
2022-12-06T13:16:31.245Z,101288.45
2022-12-06T13:19:05.383Z,101286.09
2022-12-06T13:21:43.774Z,101282.03
2022-12-06T13:24:26.901Z,101282.23
2022-12-06T13:27:11.181Z,101287.70
2022-12-06T13:30:01.891Z,101288.09
2022-12-06T13:32:46.940Z,101292.66
2022-12-06T13:35:31.107Z,101285.13
2022-12-06T13:38:26.665Z,101293.02
2022-12-06T13:41:01.425Z,101278.17
2022-12-06T13:43:40.325Z,101275.43
2022-12-06T13:46:26.793Z,101283.45
2022-12-06T13:49:07.150Z,101275.93
2022-12-06T13:51:44.660Z,101291.11
2022-12-06T13:54:25.298Z,101285.05
2022-12-06T13:57:01.070Z,101277.37
2022-12-06T13:59:39.421Z,101277.70
2022-12-06T14:02:43.460Z,101273.15
2022-12-06T14:08:56.284Z,101277.14
2022-12-06T14:11:36.596Z,101282.26
2022-12-06T14:14:18.215Z,101274.01
2022-12-06T14:16:59.630Z,101275.81
2022-12-06T14:19:51.164Z,101272.34
2022-12-06T14:22:34.910Z,101263.53
2022-12-06T14:25:19.289Z,101264.44
2022-12-06T14:27:56.423Z,101263.71
2022-12-06T14:30:30.480Z,101264.80
2022-12-06T14:33:08.278Z,101267.36
2022-12-06T14:35:42.267Z,101255.28
2022-12-06T14:38:31.640Z,101256.75
2022-12-06T14:41:23.481Z,101253.63
2022-12-06T14:43:57.371Z,101248.69
2022-12-06T14:46:31.199Z,101240.25
2022-12-06T14:49:23.191Z,101239.34
2022-12-06T14:51:57.080Z,101235.66
2022-12-06T14:54:43.168Z,101232.57
2022-12-06T14:57:29.624Z,101237.13
2022-12-06T15:00:16.125Z,101245.70
2022-12-06T15:03:06.514Z,101236.59
2022-12-06T15:05:45.574Z,101234.75
2022-12-06T15:08:33.330Z,101227.41
2022-12-06T15:11:38.552Z,101222.47
2022-12-06T15:14:26.263Z,101231.23
2022-12-06T15:17:06.876Z,101229.20
2022-12-06T15:19:48.440Z,101228.83
2022-12-06T15:22:29.222Z,101223.52
2022-12-06T15:25:04.221Z,101236.11
2022-12-06T15:27:38.538Z,101242.69
2022-12-06T15:30:14.977Z,101237.56
2022-12-06T15:32:49.371Z,101240.45
2022-12-06T15:35:23.489Z,101244.46
2022-12-06T15:37:57.757Z,101253.93
2022-12-06T15:40:32.053Z,101246.25
2022-12-06T15:43:07.242Z,101252.98
2022-12-06T15:45:42.060Z,101251.50
2022-12-06T15:48:16.186Z,101252.43
2022-12-06T15:50:50.973Z,101251.48
2022-12-06T15:53:26.199Z,101253.84
2022-12-06T15:56:00.777Z,101256.40
2022-12-06T15:58:35.059Z,101256.91
2022-12-06T16:01:13.856Z,101251.98
2022-12-06T16:03:47.673Z,101253.78
2022-12-06T16:06:23.855Z,101253.19
2022-12-06T16:08:58.089Z,101251.90
